Time;durP1;ratioP1;P1;durP2;ratioP2;P2;SDS_P1;SDS_P2;PMS_P1;PMS_P2;Temp;Humidity;BMP_temperature;BMP_pressure;BME280_temperature;BME280_humidity;BME280_pressure;Samples;Min_cycle;Max_cycle;Signal;HPM_P1;HPM_P2
2022/08/14 00:04:37;;;;;;;6.50;2.50;;;;;;;;;;10548146;28;20402;-92
2022/08/14 00:09:39;;;;;;;2.77;2.50;;;;;;;;;;10561607;28;20463;-91
2022/08/14 00:14:41;;;;;;;3.60;2.33;;;;;;;;;;10542333;28;20430;-93
2022/08/14 00:19:44;;;;;;;3.40;2.53;;;;;;;;;;10544736;28;20485;-92
2022/08/14 00:24:46;;;;;;;3.97;2.53;;;;;;;;;;10535769;28;20498;-92
2022/08/14 00:29:48;;;;;;;4.50;2.70;;;;;;;;;;10564542;28;20418;-92
2022/08/14 00:34:51;;;;;;;2.70;2.50;;;;;;;;;;10559027;28;20465;-92
2022/08/14 00:39:53;;;;;;;3.22;2.70;;;;;;;;;;10555889;28;20408;-92
2022/08/14 00:44:56;;;;;;;2.78;2.40;;;;;;;;;;10538357;28;20429;-92
2022/08/14 00:50:01;;;;;;;2.97;2.35;;;;;;;;;;10552642;28;20468;-91
2022/08/14 00:55:04;;;;;;;2.85;2.55;;;;;;;;;;10556518;28;20417;-92
2022/08/14 01:00:11;;;;;;;4.30;2.90;;;;;;;;;;10544827;28;20435;-92
2022/08/14 01:05:22;;;;;;;4.80;2.67;;;;;;;;;;10533755;28;20422;-92
2022/08/14 01:10:49;;;;;;;3.63;2.47;;;;;;;;;;10534184;28;20502;-92
2022/08/14 01:15:50;;;;;;;3.00;2.70;;;;;;;;;;10545720;28;20400;-92
2022/08/14 01:21:05;;;;;;;5.15;2.83;;;;;;;;;;10534726;28;20432;-92
2022/08/14 01:26:10;;;;;;;4.25;3.08;;;;;;;;;;10535995;28;20470;-92
2022/08/14 01:31:16;;;;;;;4.35;2.92;;;;;;;;;;10515544;28;20520;-92
2022/08/14 01:36:19;;;;;;;3.63;3.17;;;;;;;;;;10540304;28;20517;-92
2022/08/14 01:41:24;;;;;;;3.58;2.85;;;;;;;;;;10533234;28;20410;-92
2022/08/14 01:46:28;;;;;;;3.03;2.58;;;;;;;;;;10538711;28;20469;-92
2022/08/14 01:51:30;;;;;;;3.80;3.33;;;;;;;;;;10548400;28;20490;-91
2022/08/14 01:56:36;;;;;;;4.30;3.40;;;;;;;;;;10528944;28;20814;-93
2022/08/14 02:01:38;;;;;;;4.17;3.70;;;;;;;;;;10541806;28;20490;-92
2022/08/14 02:06:40;;;;;;;5.32;4.40;;;;;;;;;;10557400;28;20509;-92
2022/08/14 02:11:44;;;;;;;5.63;4.10;;;;;;;;;;10539223;28;20412;-92
2022/08/14 02:16:52;;;;;;;4.95;4.40;;;;;;;;;;10547368;28;20495;-92
2022/08/14 02:21:56;;;;;;;4.80;4.00;;;;;;;;;;10557662;28;20420;-92
2022/08/14 02:27:00;;;;;;;5.63;3.80;;;;;;;;;;10563123;28;20501;-92
2022/08/14 02:32:02;;;;;;;6.47;3.95;;;;;;;;;;10569345;28;20482;-92
2022/08/14 02:37:08;;;;;;;4.28;3.90;;;;;;;;;;10562937;28;20420;-92
2022/08/14 02:42:13;;;;;;;4.38;3.60;;;;;;;;;;10567696;28;20410;-92
2022/08/14 02:47:16;;;;;;;4.90;3.73;;;;;;;;;;10546409;28;20418;-91
2022/08/14 02:52:19;;;;;;;6.25;4.10;;;;;;;;;;10562039;28;20411;-92
2022/08/14 02:57:23;;;;;;;4.45;4.00;;;;;;;;;;10557267;28;20435;-92
2022/08/14 03:02:25;;;;;;;4.13;3.00;;;;;;;;;;10565976;28;20501;-92
2022/08/14 03:07:28;;;;;;;5.53;3.70;;;;;;;;;;10547133;28;20414;-92
2022/08/14 03:12:33;;;;;;;4.53;3.10;;;;;;;;;;10559798;28;20413;-92
2022/08/14 03:17:35;;;;;;;3.95;3.20;;;;;;;;;;10542959;28;20431;-91
2022/08/14 03:22:37;;;;;;;4.10;3.50;;;;;;;;;;10547234;28;20412;-91
2022/08/14 03:27:40;;;;;;;6.20;3.67;;;;;;;;;;10534510;28;20546;-92
2022/08/14 03:32:42;;;;;;;3.90;3.20;;;;;;;;;;10571766;28;20495;-92
2022/08/14 03:37:44;;;;;;;4.37;3.17;;;;;;;;;;10492256;22;20425;-88
2022/08/14 03:42:47;;;;;;;4.30;3.50;;;;;;;;;;10386578;28;20445;-89
2022/08/14 03:47:49;;;;;;;5.15;3.67;;;;;;;;;;10377094;28;20423;-89
2022/08/14 03:52:51;;;;;;;4.88;3.53;;;;;;;;;;10387486;28;20432;-88
2022/08/14 03:57:54;;;;;;;5.90;3.70;;;;;;;;;;10384872;28;20411;-89
2022/08/14 04:02:56;;;;;;;6.40;4.45;;;;;;;;;;10393106;28;20490;-89
2022/08/14 04:07:58;;;;;;;7.22;6.20;;;;;;;;;;10385715;28;20999;-89
2022/08/14 04:13:04;;;;;;;7.97;7.00;;;;;;;;;;10376375;28;20411;-88
2022/08/14 04:18:07;;;;;;;8.97;7.20;;;;;;;;;;10390076;28;20754;-89
2022/08/14 04:23:10;;;;;;;8.20;6.40;;;;;;;;;;10387799;28;20411;-89
2022/08/14 04:28:15;;;;;;;7.50;6.80;;;;;;;;;;10385199;28;20907;-89
2022/08/14 04:33:17;;;;;;;7.90;6.60;;;;;;;;;;10380643;28;20918;-89
2022/08/14 04:43:42;;;;;;;9.17;7.07;;;;;;;;;;10386098;28;20382;-89
2022/08/14 04:48:45;;;;;;;9.65;7.00;;;;;;;;;;10387267;28;21143;-89
2022/08/14 04:53:49;;;;;;;7.68;6.70;;;;;;;;;;10383008;28;20469;-89
2022/08/14 04:58:56;;;;;;;9.75;6.93;;;;;;;;;;10373521;28;20800;-88
2022/08/14 05:03:58;;;;;;;8.47;7.67;;;;;;;;;;10377909;28;20414;-89
2022/08/14 05:09:00;;;;;;;8.75;7.47;;;;;;;;;;10380616;28;20606;-87
2022/08/14 05:14:05;;;;;;;8.10;6.63;;;;;;;;;;10387887;28;20504;-89
2022/08/14 05:19:12;;;;;;;11.40;8.00;;;;;;;;;;10376171;28;20883;-71
2022/08/14 05:24:14;;;;;;;9.43;8.50;;;;;;;;;;10371476;28;21045;-73
2022/08/14 05:29:17;;;;;;;12.23;8.05;;;;;;;;;;10364306;28;20429;-72
2022/08/14 05:34:20;;;;;;;8.93;8.02;;;;;;;;;;10363733;28;20411;-73
2022/08/14 05:39:21;;;;;;;8.65;7.20;;;;;;;;;;10378600;28;20413;-74
2022/08/14 05:44:25;;;;;;;8.68;7.88;;;;;;;;;;10393387;28;20415;-77
2022/08/14 05:49:27;;;;;;;8.68;7.55;;;;;;;;;;10389829;28;20517;-91
2022/08/14 05:54:29;;;;;;;8.52;7.60;;;;;;;;;;10384918;28;20460;-88
2022/08/14 05:59:34;;;;;;;8.50;7.63;;;;;;;;;;10389448;28;20404;-88
2022/08/14 06:04:35;;;;;;;8.43;7.15;;;;;;;;;;10385381;28;20416;-87
2022/08/14 06:09:37;;;;;;;6.82;4.03;;;;;;;;;;10385887;28;20423;-88
2022/08/14 06:14:41;;;;;;;6.82;4.60;;;;;;;;;;10384820;28;20981;-88
2022/08/14 06:19:42;;;;;;;4.97;3.70;;;;;;;;;;10386484;28;20403;-88
2022/08/14 06:24:44;;;;;;;3.73;3.27;;;;;;;;;;10382242;28;20798;-87
2022/08/14 06:29:49;;;;;;;4.00;3.60;;;;;;;;;;10385002;28;20520;-88
2022/08/14 06:34:50;;;;;;;5.70;4.05;;;;;;;;;;10386954;28;20407;-88
2022/08/14 06:39:52;;;;;;;6.60;4.55;;;;;;;;;;10384746;28;20429;-88
2022/08/14 06:44:56;;;;;;;8.18;4.75;;;;;;;;;;10385410;28;20414;-88
2022/08/14 06:49:58;;;;;;;5.32;4.40;;;;;;;;;;10383816;28;20445;-88
2022/08/14 06:55:00;;;;;;;5.37;3.90;;;;;;;;;;10381747;28;20492;-88
2022/08/14 07:00:06;;;;;;;4.87;4.37;;;;;;;;;;10384113;28;20425;-88
2022/08/14 07:10:28;;;;;;;6.40;4.10;;;;;;;;;;10384484;28;20405;-89
2022/08/14 07:15:31;;;;;;;4.53;3.90;;;;;;;;;;10380929;28;20477;-88
2022/08/14 07:20:34;;;;;;;5.78;4.07;;;;;;;;;;10383765;28;20406;-88
2022/08/14 07:25:36;;;;;;;4.07;3.63;;;;;;;;;;10385687;28;20508;-88
2022/08/14 07:30:40;;;;;;;4.20;3.60;;;;;;;;;;10380995;28;20426;-89
2022/08/14 07:35:42;;;;;;;4.85;3.85;;;;;;;;;;10380816;28;20482;-88
2022/08/14 07:40:44;;;;;;;4.00;3.60;;;;;;;;;;10386948;28;20429;-88
2022/08/14 07:45:48;;;;;;;3.95;3.65;;;;;;;;;;10382692;28;20841;-86
2022/08/14 07:50:50;;;;;;;3.92;3.20;;;;;;;;;;10382144;28;20685;-86
2022/08/14 07:55:52;;;;;;;3.50;3.20;;;;;;;;;;10385518;28;20490;-86
2022/08/14 08:00:58;;;;;;;4.33;3.40;;;;;;;;;;10381202;28;20405;-87
2022/08/14 08:06:00;;;;;;;4.07;2.92;;;;;;;;;;10383256;28;20773;-86
2022/08/14 08:11:02;;;;;;;5.00;3.50;;;;;;;;;;10387248;28;20905;-86
2022/08/14 08:16:07;;;;;;;3.83;2.93;;;;;;;;;;10382876;28;20583;-86
2022/08/14 08:21:10;;;;;;;2.72;2.50;;;;;;;;;;10381983;28;20415;-85
2022/08/14 08:26:11;;;;;;;2.83;2.45;;;;;;;;;;10379950;28;20415;-86
2022/08/14 08:31:15;;;;;;;2.88;2.00;;;;;;;;;;10378693;28;20402;-86
2022/08/14 08:36:17;;;;;;;4.57;2.33;;;;;;;;;;10383407;28;20931;-86
2022/08/14 08:41:19;;;;;;;2.55;2.20;;;;;;;;;;10382403;28;20449;-86
2022/08/14 08:46:22;;;;;;;2.40;2.20;;;;;;;;;;10380791;28;20490;-86
2022/08/14 08:51:27;;;;;;;2.78;2.30;;;;;;;;;;10381331;28;20419;-86
2022/08/14 08:56:38;;;;;;;2.35;2.15;;;;;;;;;;10383452;28;20746;-86
2022/08/14 09:01:41;;;;;;;2.42;2.10;;;;;;;;;;10378555;28;20427;-85
2022/08/14 09:06:44;;;;;;;2.17;1.90;;;;;;;;;;10378266;28;20521;-86
2022/08/14 09:11:46;;;;;;;3.00;2.20;;;;;;;;;;10389850;28;20408;-86
2022/08/14 09:16:50;;;;;;;3.00;2.70;;;;;;;;;;10387718;28;20456;-87
2022/08/14 09:21:53;;;;;;;2.30;2.00;;;;;;;;;;10388854;28;20406;-86
2022/08/14 09:26:56;;;;;;;2.55;2.20;;;;;;;;;;10392867;28;20421;-86
2022/08/14 09:32:05;;;;;;;2.63;2.17;;;;;;;;;;10387933;28;20455;-86
2022/08/14 09:37:21;;;;;;;2.40;2.20;;;;;;;;;;10389711;28;20436;-86
2022/08/14 09:42:37;;;;;;;3.30;2.00;;;;;;;;;;10383744;28;20499;-89
2022/08/14 09:47:57;;;;;;;2.30;2.07;;;;;;;;;;10385138;28;20427;-89
2022/08/14 09:53:02;;;;;;;2.33;2.10;;;;;;;;;;10387669;28;20397;-90
2022/08/14 09:58:10;;;;;;;2.72;2.08;;;;;;;;;;10392371;28;20413;-89
2022/08/14 10:03:26;;;;;;;2.30;2.10;;;;;;;;;;10387463;28;20407;-90
2022/08/14 10:08:39;;;;;;;1.93;1.80;;;;;;;;;;10383598;28;20748;-89
2022/08/14 10:13:41;;;;;;;2.35;2.08;;;;;;;;;;10392950;28;20814;-89
2022/08/14 10:18:44;;;;;;;3.13;2.13;;;;;;;;;;10386103;28;20489;-89
2022/08/14 10:23:51;;;;;;;2.28;1.90;;;;;;;;;;10385908;28;20525;-88
2022/08/14 10:28:55;;;;;;;2.50;1.70;;;;;;;;;;10390058;28;20562;-89
2022/08/14 10:34:03;;;;;;;2.05;1.63;;;;;;;;;;10386261;28;20463;-89
2022/08/14 10:39:08;;;;;;;1.93;1.50;;;;;;;;;;10386176;28;20553;-90
2022/08/14 10:44:13;;;;;;;2.10;1.55;;;;;;;;;;10386105;28;20409;-90
2022/08/14 10:49:22;;;;;;;1.80;1.70;;;;;;;;;;10385467;28;20425;-90
2022/08/14 10:54:34;;;;;;;2.00;1.50;;;;;;;;;;10387247;28;20500;-88
2022/08/14 10:59:42;;;;;;;1.60;1.50;;;;;;;;;;10381406;28;20953;-89
2022/08/14 11:04:46;;;;;;;2.67;1.70;;;;;;;;;;10387402;28;20411;-89
2022/08/14 11:09:54;;;;;;;1.70;1.60;;;;;;;;;;10390514;28;20861;-90
2022/08/14 11:14:59;;;;;;;1.90;1.58;;;;;;;;;;10383846;28;20407;-90
2022/08/14 11:20:09;;;;;;;3.45;1.55;;;;;;;;;;10387974;28;20409;-90
2022/08/14 11:25:13;;;;;;;2.08;1.50;;;;;;;;;;10383136;28;20651;-90
2022/08/14 11:30:18;;;;;;;1.70;1.60;;;;;;;;;;10381511;28;20824;-90
2022/08/14 11:35:25;;;;;;;2.10;1.30;;;;;;;;;;10387945;28;21114;-90
2022/08/14 11:40:33;;;;;;;1.80;1.50;;;;;;;;;;10389220;28;20411;-90
2022/08/14 11:45:37;;;;;;;1.50;1.40;;;;;;;;;;10381541;28;20413;-88
2022/08/14 11:50:40;;;;;;;1.40;1.30;;;;;;;;;;10383520;28;20436;-88
2022/08/14 11:55:42;;;;;;;1.77;1.60;;;;;;;;;;10386645;28;20413;-88
2022/08/14 12:00:48;;;;;;;2.20;1.30;;;;;;;;;;10380816;28;20421;-86
2022/08/14 12:05:51;;;;;;;1.70;1.40;;;;;;;;;;10379169;28;20395;-88
2022/08/14 12:10:57;;;;;;;2.92;1.50;;;;;;;;;;10382268;28;20422;-87
2022/08/14 12:16:01;;;;;;;2.10;1.30;;;;;;;;;;10382831;28;20409;-87
2022/08/14 12:21:16;;;;;;;1.40;1.30;;;;;;;;;;10382989;28;20424;-88
2022/08/14 12:26:19;;;;;;;1.83;1.40;;;;;;;;;;10388325;28;20413;-87
2022/08/14 12:31:21;;;;;;;2.05;1.20;;;;;;;;;;10374635;28;20415;-87
2022/08/14 12:36:26;;;;;;;1.57;1.47;;;;;;;;;;10380506;28;20504;-88
2022/08/14 12:41:34;;;;;;;1.40;1.30;;;;;;;;;;10387244;28;20483;-87
2022/08/14 12:46:39;;;;;;;1.98;1.58;;;;;;;;;;10378451;28;20815;-88
2022/08/14 12:51:43;;;;;;;1.60;1.50;;;;;;;;;;10381003;28;20746;-88
2022/08/14 12:56:46;;;;;;;2.78;1.50;;;;;;;;;;10377873;28;20411;-88
2022/08/14 13:01:56;;;;;;;2.53;1.40;;;;;;;;;;10380435;28;20482;-87
2022/08/14 13:07:07;;;;;;;1.63;1.53;;;;;;;;;;10377326;28;20502;-87
2022/08/14 13:12:11;;;;;;;1.70;1.50;;;;;;;;;;10385236;28;20431;-87
2022/08/14 13:17:13;;;;;;;3.07;1.57;;;;;;;;;;10380792;28;20461;-87
2022/08/14 13:22:18;;;;;;;2.20;1.40;;;;;;;;;;10380286;28;20494;-87
2022/08/14 13:27:23;;;;;;;3.05;1.73;;;;;;;;;;10379613;28;20418;-90
2022/08/14 13:32:26;;;;;;;1.80;1.60;;;;;;;;;;10380497;28;20963;-88
2022/08/14 13:37:30;;;;;;;1.85;1.50;;;;;;;;;;10380333;28;20692;-88
2022/08/14 13:42:32;;;;;;;2.67;1.60;;;;;;;;;;10377221;28;20915;-88
2022/08/14 13:47:34;;;;;;;2.20;1.33;;;;;;;;;;10379814;28;20403;-88
2022/08/14 13:52:42;;;;;;;2.50;1.40;;;;;;;;;;10379089;28;20412;-88
2022/08/14 13:57:45;;;;;;;1.50;1.40;;;;;;;;;;10379943;28;20488;-87
2022/08/14 14:02:47;;;;;;;2.07;1.50;;;;;;;;;;10384999;28;20407;-88
2022/08/14 14:07:54;;;;;;;1.93;1.40;;;;;;;;;;10386939;28;20504;-88
2022/08/14 14:12:56;;;;;;;1.53;1.43;;;;;;;;;;10385714;28;20417;-88
2022/08/14 14:17:58;;;;;;;2.30;1.33;;;;;;;;;;10381832;28;20413;-87
2022/08/14 14:23:01;;;;;;;1.67;1.27;;;;;;;;;;10386040;28;20734;-88
2022/08/14 14:28:04;;;;;;;1.50;1.25;;;;;;;;;;10387738;28;20429;-88
2022/08/14 14:33:08;;;;;;;1.48;1.38;;;;;;;;;;10386363;28;20402;-88
2022/08/14 14:38:14;;;;;;;2.30;1.43;;;;;;;;;;10387720;28;20490;-87
2022/08/14 14:43:16;;;;;;;1.50;1.40;;;;;;;;;;10382961;28;20415;-87
2022/08/14 14:48:19;;;;;;;1.55;1.45;;;;;;;;;;10385427;28;20449;-87
2022/08/14 14:53:23;;;;;;;1.57;1.40;;;;;;;;;;10385297;28;20484;-87
2022/08/14 14:58:25;;;;;;;2.70;1.70;;;;;;;;;;10390202;28;20448;-87
2022/08/14 15:03:27;;;;;;;1.63;1.52;;;;;;;;;;10383270;28;20396;-87
2022/08/14 15:08:31;;;;;;;1.80;1.45;;;;;;;;;;10383383;28;20422;-87
2022/08/14 15:13:33;;;;;;;1.38;1.27;;;;;;;;;;10383400;28;20447;-87
2022/08/14 15:18:35;;;;;;;1.73;1.55;;;;;;;;;;10384953;28;20418;-88
2022/08/14 15:23:38;;;;;;;1.40;1.30;;;;;;;;;;10383817;28;20413;-87
2022/08/14 15:28:40;;;;;;;1.50;1.40;;;;;;;;;;10383020;28;20810;-88
2022/08/14 15:39:17;;;;;;;1.63;1.50;;;;;;;;;;10260415;28;20407;-86
2022/08/14 15:44:19;;;;;;;1.48;1.38;;;;;;;;;;10356455;28;20413;-86
2022/08/14 15:49:21;;;;;;;1.60;1.50;;;;;;;;;;10379968;28;20415;-86
2022/08/14 15:54:24;;;;;;;1.30;1.20;;;;;;;;;;10382940;28;20450;-86
2022/08/14 16:01:18;;;;;;;1.80;1.40;;;;;;;;;;10380528;28;20615;-87
2022/08/14 16:04:49;;;;;;;1.95;1.40;;;;;;;;;;10381780;28;20876;-87
2022/08/14 16:09:52;;;;;;;1.50;1.40;;;;;;;;;;10380962;28;20435;-86
2022/08/14 16:14:55;;;;;;;2.67;1.70;;;;;;;;;;10380332;28;20908;-87
2022/08/14 16:19:58;;;;;;;2.60;1.87;;;;;;;;;;10380766;28;20413;-87
2022/08/14 16:25:02;;;;;;;1.90;1.65;;;;;;;;;;10377230;28;20886;-87
2022/08/14 16:30:05;;;;;;;3.45;1.80;;;;;;;;;;10385951;28;20789;-86
2022/08/14 16:35:11;;;;;;;1.80;1.70;;;;;;;;;;10380684;28;20753;-86
2022/08/14 16:40:14;;;;;;;1.60;1.50;;;;;;;;;;10382073;28;20508;-86
2022/08/14 16:45:17;;;;;;;1.98;1.77;;;;;;;;;;10380579;28;21614;-87
2022/08/14 16:50:19;;;;;;;1.93;1.83;;;;;;;;;;10380425;28;20494;-87
2022/08/14 16:55:23;;;;;;;2.00;1.80;;;;;;;;;;10384508;28;20405;-86
2022/08/14 17:00:27;;;;;;;2.67;1.90;;;;;;;;;;10375171;28;20457;-87
2022/08/14 17:05:31;;;;;;;2.67;1.90;;;;;;;;;;10384341;28;20409;-87
2022/08/14 17:10:36;;;;;;;2.42;1.95;;;;;;;;;;10380264;28;20945;-85
2022/08/14 17:15:38;;;;;;;2.25;1.98;;;;;;;;;;10379653;28;20521;-87
2022/08/14 17:20:45;;;;;;;2.30;2.10;;;;;;;;;;10379482;28;20484;-86
2022/08/14 17:25:48;;;;;;;1.92;1.83;;;;;;;;;;10378848;28;20458;-86
2022/08/14 17:30:51;;;;;;;2.38;1.90;;;;;;;;;;10380352;28;20664;-86
2022/08/14 17:36:11;;;;;;;3.83;2.05;;;;;;;;;;10386824;28;20401;-86
2022/08/14 17:41:23;;;;;;;2.40;2.10;;;;;;;;;;10389559;28;20516;-86
2022/08/14 17:46:35;;;;;;;3.92;2.08;;;;;;;;;;10386752;28;20407;-85
2022/08/14 17:51:53;;;;;;;4.03;2.23;;;;;;;;;;10386793;28;20460;-83
2022/08/14 17:57:01;;;;;;;2.20;2.00;;;;;;;;;;10386908;28;20920;-86
2022/08/14 18:02:04;;;;;;;2.40;1.95;;;;;;;;;;10386662;28;20423;-86
2022/08/14 18:07:08;;;;;;;2.70;2.20;;;;;;;;;;10385923;28;20870;-86
2022/08/14 18:12:11;;;;;;;3.20;2.35;;;;;;;;;;10390948;28;20431;-86
2022/08/14 18:17:14;;;;;;;3.70;2.38;;;;;;;;;;10385934;28;20913;-86
2022/08/14 18:22:16;;;;;;;4.07;2.33;;;;;;;;;;10386036;28;20407;-86
2022/08/14 18:27:22;;;;;;;3.20;2.90;;;;;;;;;;10387340;28;20463;-86
2022/08/14 18:32:40;;;;;;;2.60;2.37;;;;;;;;;;10390137;28;20794;-86
2022/08/14 18:37:43;;;;;;;2.70;2.50;;;;;;;;;;10383390;28;20428;-86
2022/08/14 18:42:49;;;;;;;4.77;2.50;;;;;;;;;;10389166;28;20420;-87
2022/08/14 18:48:25;;;;;;;3.22;2.58;;;;;;;;;;10384778;28;20410;-86
2022/08/14 18:53:28;;;;;;;4.18;2.67;;;;;;;;;;10383391;28;20415;-86
2022/08/14 18:58:47;;;;;;;3.77;2.80;;;;;;;;;;10381030;28;20445;-86
2022/08/14 19:03:49;;;;;;;5.15;2.78;;;;;;;;;;10384046;28;20486;-86
2022/08/14 19:08:51;;;;;;;3.83;2.72;;;;;;;;;;10383805;28;20894;-86
2022/08/14 19:13:56;;;;;;;2.92;2.60;;;;;;;;;;10384528;28;20643;-86
2022/08/14 19:19:00;;;;;;;3.10;2.80;;;;;;;;;;10383974;28;20425;-86
2022/08/14 19:24:07;;;;;;;4.10;3.10;;;;;;;;;;10379913;28;20907;-86
2022/08/14 19:29:24;;;;;;;4.63;3.03;;;;;;;;;;10384594;28;20421;-86
2022/08/14 19:34:42;;;;;;;3.03;2.80;;;;;;;;;;10382899;28;20485;-86
2022/08/14 19:39:46;;;;;;;2.97;2.53;;;;;;;;;;10382466;28;20413;-86
2022/08/14 19:44:50;;;;;;;3.95;3.00;;;;;;;;;;10381926;28;20403;-86
2022/08/14 19:49:52;;;;;;;5.10;2.88;;;;;;;;;;10382129;28;20518;-86
2022/08/14 19:54:54;;;;;;;3.60;2.90;;;;;;;;;;10384243;28;20494;-86
2022/08/14 20:00:06;;;;;;;4.40;2.70;;;;;;;;;;10382787;28;20399;-86
2022/08/14 20:05:09;;;;;;;4.57;3.10;;;;;;;;;;10381446;28;20413;-85
2022/08/14 20:10:26;;;;;;;3.50;3.08;;;;;;;;;;10382168;28;20441;-86
2022/08/14 20:15:33;;;;;;;5.68;3.28;;;;;;;;;;10381342;28;20768;-86
2022/08/14 20:20:37;;;;;;;4.25;3.25;;;;;;;;;;10381377;28;20422;-86
2022/08/14 20:25:41;;;;;;;4.63;3.50;;;;;;;;;;10379473;28;20411;-86
2022/08/14 20:30:46;;;;;;;4.30;3.55;;;;;;;;;;10382522;28;20524;-86
2022/08/14 20:35:50;;;;;;;3.90;3.60;;;;;;;;;;10384254;28;20421;-86
2022/08/14 20:40:54;;;;;;;5.33;3.70;;;;;;;;;;10380668;28;20765;-86
2022/08/14 20:45:58;;;;;;;4.82;3.90;;;;;;;;;;10380113;28;20539;-86
2022/08/14 20:51:21;;;;;;;5.15;3.60;;;;;;;;;;10379406;28;20425;-86
2022/08/14 20:56:23;;;;;;;5.90;3.83;;;;;;;;;;10382740;28;20907;-86
2022/08/14 21:01:35;;;;;;;4.47;3.33;;;;;;;;;;10383822;28;20399;-86
2022/08/14 21:06:40;;;;;;;5.25;3.92;;;;;;;;;;10379258;28;20485;-86
2022/08/14 21:11:48;;;;;;;3.93;3.43;;;;;;;;;;10383595;28;20432;-86
2022/08/14 21:16:53;;;;;;;4.18;3.38;;;;;;;;;;10379507;28;20494;-86
2022/08/14 21:21:57;;;;;;;4.10;3.50;;;;;;;;;;10379980;28;20403;-86
2022/08/14 21:27:04;;;;;;;4.43;3.28;;;;;;;;;;10382371;28;20490;-86
2022/08/14 21:32:07;;;;;;;4.67;3.93;;;;;;;;;;10382407;28;20535;-86
2022/08/14 21:37:12;;;;;;;5.03;3.72;;;;;;;;;;10380638;28;20501;-86
2022/08/14 21:42:13;;;;;;;6.97;3.67;;;;;;;;;;10383178;28;20850;-86
2022/08/14 21:47:17;;;;;;;6.15;3.80;;;;;;;;;;10379735;28;20888;-86
2022/08/14 21:52:20;;;;;;;5.20;3.65;;;;;;;;;;10378173;28;20962;-86
2022/08/14 21:57:24;;;;;;;7.00;5.00;;;;;;;;;;10372997;28;20413;-86
2022/08/14 22:02:27;;;;;;;7.90;5.72;;;;;;;;;;10378761;28;20500;-87
2022/08/14 22:07:29;;;;;;;7.22;5.35;;;;;;;;;;10378197;28;20413;-87
2022/08/14 22:12:31;;;;;;;7.27;5.10;;;;;;;;;;10373682;28;20529;-87
2022/08/14 22:17:35;;;;;;;9.10;5.15;;;;;;;;;;10378313;28;20414;-86
2022/08/14 22:22:37;;;;;;;5.00;4.43;;;;;;;;;;10389056;28;20505;-87
2022/08/14 22:27:43;;;;;;;7.20;4.70;;;;;;;;;;10380470;28;20430;-86
2022/08/14 22:32:47;;;;;;;8.67;5.20;;;;;;;;;;10384748;28;20778;-86
2022/08/14 22:37:49;;;;;;;7.33;4.97;;;;;;;;;;10384529;28;20475;-86
2022/08/14 22:42:52;;;;;;;8.57;4.88;;;;;;;;;;10388353;28;20989;-87
2022/08/14 22:47:56;;;;;;;9.60;5.57;;;;;;;;;;10384838;28;20416;-86
2022/08/14 22:52:58;;;;;;;8.57;5.65;;;;;;;;;;10384038;28;20424;-86
2022/08/14 22:58:00;;;;;;;8.50;5.90;;;;;;;;;;10382863;28;20766;-87
2022/08/14 23:03:11;;;;;;;7.27;5.67;;;;;;;;;;10383667;28;20472;-86
2022/08/14 23:08:13;;;;;;;7.00;6.03;;;;;;;;;;10382785;28;20399;-86
2022/08/14 23:13:16;;;;;;;6.82;5.90;;;;;;;;;;10390697;28;20430;-86
2022/08/14 23:18:24;;;;;;;8.63;5.65;;;;;;;;;;10383147;28;20463;-86
2022/08/14 23:23:26;;;;;;;8.47;5.97;;;;;;;;;;10382877;28;20947;-86
2022/08/14 23:28:29;;;;;;;7.70;6.47;;;;;;;;;;10380974;28;20408;-86
2022/08/14 23:33:33;;;;;;;8.33;6.57;;;;;;;;;;10382629;28;20421;-86
2022/08/14 23:38:35;;;;;;;9.10;6.40;;;;;;;;;;10382707;28;20480;-86
2022/08/14 23:43:39;;;;;;;8.52;7.13;;;;;;;;;;10387470;28;20956;-86
2022/08/14 23:48:42;;;;;;;8.38;6.60;;;;;;;;;;10382406;28;20806;-87
2022/08/14 23:53:47;;;;;;;9.20;7.40;;;;;;;;;;10380188;28;20426;-86
2022/08/14 23:58:49;;;;;;;5.85;4.60;;;;;;;;;;10385355;28;20500;-86
